N960 KEYW-KPBI
Flight info
| Callsign | N960 |
|---|---|
| Flight time | 0h 41m |
| Altitude | 30000 |
| Route | BUFTT1 SWAGS VUUDU1 |
| Aircraft | C25C/M-BGS/L |
Departure
| Time | 2026-04-24 23:35 |
|---|---|
| Airport | Key West International Airport (KEYW) |
Arrival
| Time | 2026-04-25 00:16 |
|---|---|
| Airport | Palm Beach International Airport (KPBI) |
| Time | Latitude | Longitude | Altitude | Speed | Heading |
|---|---|---|---|---|---|
| 2026-04-24 23:11 | 24.55473 | -81.75559 | 9 ft | 0 kts | 230° |
| 2026-04-24 23:28 | 24.55462 | -81.75553 | 9 ft | 4 kts | 95° |
| 2026-04-24 23:28 | 24.55484 | -81.75543 | 9 ft | 3 kts | 308° |
| 2026-04-24 23:28 | 24.55508 | -81.75585 | 9 ft | 10 kts | 307° |
| 2026-04-24 23:28 | 24.55530 | -81.75680 | 10 ft | 14 kts | 270° |
| 2026-04-24 23:29 | 24.55527 | -81.75792 | 9 ft | 15 kts | 268° |
| 2026-04-24 23:29 | 24.55526 | -81.75915 | 6 ft | 17 kts | 269° |
| 2026-04-24 23:29 | 24.55524 | -81.76053 | 3 ft | 19 kts | 269° |
| 2026-04-24 23:29 | 24.55523 | -81.76199 | 3 ft | 19 kts | 269° |
| 2026-04-24 23:30 | 24.55522 | -81.76346 | 2 ft | 19 kts | 269° |
| 2026-04-24 23:30 | 24.55520 | -81.76493 | 1 ft | 11 kts | 269° |
| 2026-04-24 23:30 | 24.55520 | -81.76498 | 1 ft | 0 kts | 269° |
| 2026-04-24 23:32 | 24.55520 | -81.76512 | 1 ft | 0 kts | 269° |
| 2026-04-24 23:32 | 24.55520 | -81.76513 | 1 ft | 0 kts | 269° |
| 2026-04-24 23:32 | 24.55520 | -81.76516 | 1 ft | 1 kts | 269° |
| 2026-04-24 23:32 | 24.55520 | -81.76541 | 1 ft | 7 kts | 269° |
| 2026-04-24 23:33 | 24.55520 | -81.76616 | 2 ft | 12 kts | 279° |
| 2026-04-24 23:33 | 24.55525 | -81.76632 | 3 ft | 0 kts | 299° |
| 2026-04-24 23:34 | 24.55526 | -81.76633 | 3 ft | 1 kts | 300° |
| 2026-04-24 23:34 | 24.55554 | -81.76659 | 3 ft | 11 kts | 345° |
| 2026-04-24 23:34 | 24.55608 | -81.76637 | 3 ft | 17 kts | 77° |
| 2026-04-24 23:35 | 24.55612 | -81.76326 | 0 ft | 82 kts | 89° |
| 2026-04-24 23:35 | 24.55617 | -81.75408 | 169 ft | 147 kts | 90° |
| 2026-04-24 23:35 | 24.55672 | -81.74272 | 1236 ft | 146 kts | 76° |
| 2026-04-24 23:35 | 24.56369 | -81.73356 | 2054 ft | 175 kts | 34° |
| 2026-04-24 23:36 | 24.57496 | -81.72832 | 3117 ft | 181 kts | 13° |
| 2026-04-24 23:36 | 24.58770 | -81.72532 | 4069 ft | 196 kts | 9° |
| 2026-04-24 23:36 | 24.60231 | -81.72277 | 4935 ft | 221 kts | 4° |
| 2026-04-24 23:36 | 24.61761 | -81.72239 | 6273 ft | 226 kts | 358° |
| 2026-04-24 23:37 | 24.63445 | -81.72176 | 6995 ft | 254 kts | 4° |
| 2026-04-24 23:37 | 24.64943 | -81.71943 | 9381 ft | 187 kts | 5° |
| 2026-04-24 23:37 | 24.68089 | -81.71533 | 10695 ft | 259 kts | 4° |
| 2026-04-24 23:38 | 24.69829 | -81.71357 | 12213 ft | 243 kts | 3° |
| 2026-04-24 23:38 | 24.71503 | -81.70920 | 13365 ft | 256 kts | 21° |
| 2026-04-24 23:38 | 24.73033 | -81.69826 | 14337 ft | 267 kts | 37° |
| 2026-04-24 23:38 | 24.74390 | -81.68480 | 15669 ft | 256 kts | 38° |
| 2026-04-24 23:39 | 24.75760 | -81.67170 | 16507 ft | 275 kts | 37° |
| 2026-04-24 23:39 | 24.77254 | -81.65658 | 16938 ft | 305 kts | 41° |
| 2026-04-24 23:39 | 24.78767 | -81.63895 | 17442 ft | 332 kts | 44° |
| 2026-04-24 23:39 | 24.80448 | -81.61947 | 17368 ft | 369 kts | 40° |
| 2026-04-24 23:40 | 24.82433 | -81.59966 | 17277 ft | 398 kts | 37° |
| 2026-04-24 23:40 | 24.84779 | -81.58422 | 17171 ft | 396 kts | 17° |
| 2026-04-24 23:40 | 24.87359 | -81.57450 | 17071 ft | 389 kts | 15° |
| 2026-04-24 23:40 | 24.89943 | -81.56519 | 17025 ft | 382 kts | 14° |
| 2026-04-24 23:41 | 24.92433 | -81.55659 | 17020 ft | 378 kts | 14° |
| 2026-04-24 23:41 | 24.94943 | -81.54760 | 17021 ft | 380 kts | 15° |
| 2026-04-24 23:41 | 24.97466 | -81.53835 | 17020 ft | 384 kts | 15° |
| 2026-04-24 23:41 | 25.00019 | -81.52912 | 17020 ft | 388 kts | 15° |
| 2026-04-24 23:42 | 25.02601 | -81.51982 | 17022 ft | 392 kts | 15° |
| 2026-04-24 23:42 | 25.05204 | -81.51047 | 17026 ft | 395 kts | 15° |
| 2026-04-24 23:42 | 25.07135 | -81.50345 | 17026 ft | 397 kts | 15° |
| 2026-04-24 23:42 | 25.09466 | -81.49500 | 16971 ft | 392 kts | 15° |
| 2026-04-24 23:43 | 25.12041 | -81.48552 | 16768 ft | 389 kts | 15° |
| 2026-04-24 23:43 | 25.14578 | -81.47633 | 16892 ft | 378 kts | 14° |
| 2026-04-24 23:43 | 25.17055 | -81.46758 | 17005 ft | 371 kts | 14° |
| 2026-04-24 23:43 | 25.19496 | -81.45880 | 17010 ft | 367 kts | 15° |
| 2026-04-24 23:44 | 25.21915 | -81.44994 | 17009 ft | 367 kts | 15° |
| 2026-04-24 23:44 | 25.24347 | -81.44115 | 17008 ft | 370 kts | 14° |
| 2026-04-24 23:44 | 25.26800 | -81.43225 | 17010 ft | 372 kts | 15° |
| 2026-04-24 23:44 | 25.29283 | -81.42329 | 17010 ft | 379 kts | 15° |
| 2026-04-24 23:45 | 25.31817 | -81.41406 | 17014 ft | 386 kts | 15° |
| 2026-04-24 23:45 | 25.34393 | -81.40472 | 17020 ft | 393 kts | 15° |
| 2026-04-24 23:45 | 25.37007 | -81.39522 | 17022 ft | 397 kts | 15° |
| 2026-04-24 23:45 | 25.39628 | -81.38570 | 17024 ft | 394 kts | 15° |
| 2026-04-24 23:46 | 25.42215 | -81.37628 | 17026 ft | 388 kts | 15° |
| 2026-04-24 23:46 | 25.44767 | -81.36699 | 17024 ft | 384 kts | 15° |
| 2026-04-24 23:46 | 25.47256 | -81.35796 | 17022 ft | 380 kts | 15° |
| 2026-04-24 23:46 | 25.49755 | -81.34884 | 17020 ft | 377 kts | 15° |
| 2026-04-24 23:47 | 25.52239 | -81.33981 | 17021 ft | 375 kts | 15° |
| 2026-04-24 23:47 | 25.54713 | -81.33076 | 17016 ft | 374 kts | 15° |
| 2026-04-24 23:47 | 25.57184 | -81.32180 | 17013 ft | 374 kts | 15° |
| 2026-04-24 23:47 | 25.59661 | -81.31274 | 17014 ft | 375 kts | 15° |
| 2026-04-24 23:48 | 25.62147 | -81.30369 | 17012 ft | 376 kts | 15° |
| 2026-04-24 23:48 | 25.64636 | -81.29459 | 17013 ft | 377 kts | 15° |
| 2026-04-24 23:48 | 25.67134 | -81.28548 | 17015 ft | 380 kts | 15° |
| 2026-04-24 23:48 | 25.69660 | -81.27626 | 17018 ft | 383 kts | 15° |
| 2026-04-24 23:49 | 25.72201 | -81.26696 | 17021 ft | 386 kts | 15° |
| 2026-04-24 23:49 | 25.74758 | -81.25763 | 17022 ft | 388 kts | 15° |
| 2026-04-24 23:49 | 25.77332 | -81.24819 | 17019 ft | 390 kts | 15° |
| 2026-04-24 23:49 | 25.79878 | -81.23890 | 17020 ft | 391 kts | 15° |
| 2026-04-24 23:50 | 25.82466 | -81.22940 | 17019 ft | 392 kts | 15° |
| 2026-04-24 23:50 | 25.85064 | -81.21991 | 17019 ft | 394 kts | 15° |
| 2026-04-24 23:50 | 25.87670 | -81.21033 | 17019 ft | 394 kts | 15° |
| 2026-04-24 23:50 | 25.90278 | -81.20079 | 17019 ft | 395 kts | 15° |
| 2026-04-24 23:51 | 25.92836 | -81.19137 | 17017 ft | 371 kts | 15° |
| 2026-04-24 23:51 | 25.95199 | -81.18264 | 16868 ft | 345 kts | 15° |
| 2026-04-24 23:51 | 25.97396 | -81.17460 | 16815 ft | 320 kts | 14° |
| 2026-04-24 23:51 | 25.99441 | -81.16709 | 16801 ft | 300 kts | 14° |
| 2026-04-24 23:52 | 26.01362 | -81.16006 | 16805 ft | 282 kts | 14° |
| 2026-04-24 23:52 | 26.03173 | -81.15339 | 16806 ft | 267 kts | 13° |
| 2026-04-24 23:52 | 26.04895 | -81.14707 | 16797 ft | 254 kts | 13° |
| 2026-04-24 23:52 | 26.06537 | -81.14104 | 16804 ft | 243 kts | 13° |
| 2026-04-24 23:53 | 26.08111 | -81.13524 | 16803 ft | 234 kts | 13° |
| 2026-04-24 23:53 | 26.09626 | -81.12969 | 16804 ft | 225 kts | 13° |
| 2026-04-24 23:53 | 26.11091 | -81.12429 | 16808 ft | 218 kts | 12° |
| 2026-04-24 23:53 | 26.12509 | -81.11906 | 16805 ft | 212 kts | 13° |
| 2026-04-24 23:54 | 26.13888 | -81.11401 | 16796 ft | 206 kts | 12° |
| 2026-04-24 23:54 | 26.15278 | -81.10892 | 16524 ft | 214 kts | 12° |
| 2026-04-24 23:54 | 26.16713 | -81.10364 | 16277 ft | 220 kts | 13° |
| 2026-04-24 23:54 | 26.18204 | -81.10147 | 16106 ft | 213 kts | 346° |
| 2026-04-24 23:55 | 26.19631 | -81.10474 | 16056 ft | 207 kts | 344° |
| 2026-04-24 23:55 | 26.21042 | -81.10817 | 16034 ft | 209 kts | 342° |
| 2026-04-24 23:55 | 26.22469 | -81.11177 | 16030 ft | 212 kts | 343° |
| 2026-04-24 23:55 | 26.23935 | -81.11546 | 16024 ft | 220 kts | 343° |
| 2026-04-24 23:56 | 26.25474 | -81.11927 | 16034 ft | 237 kts | 343° |
| 2026-04-24 23:56 | 26.27163 | -81.12347 | 16030 ft | 259 kts | 344° |
| 2026-04-24 23:56 | 26.28967 | -81.12796 | 16033 ft | 279 kts | 344° |
| 2026-04-24 23:56 | 26.30920 | -81.13276 | 16030 ft | 296 kts | 344° |
| 2026-04-24 23:57 | 26.32996 | -81.13692 | 16021 ft | 314 kts | 355° |
| 2026-04-24 23:57 | 26.35195 | -81.13205 | 16024 ft | 333 kts | 17° |
| 2026-04-24 23:57 | 26.37274 | -81.11918 | 15834 ft | 350 kts | 30° |
| 2026-04-24 23:57 | 26.39328 | -81.10388 | 15628 ft | 361 kts | 32° |
| 2026-04-24 23:58 | 26.41438 | -81.08790 | 15415 ft | 372 kts | 31° |
| 2026-04-24 23:58 | 26.43613 | -81.07228 | 15199 ft | 371 kts | 30° |
| 2026-04-24 23:58 | 26.45784 | -81.05681 | 14979 ft | 370 kts | 30° |
| 2026-04-24 23:58 | 26.47934 | -81.04129 | 14766 ft | 369 kts | 31° |
| 2026-04-24 23:59 | 26.50081 | -81.02559 | 14532 ft | 368 kts | 30° |
| 2026-04-24 23:59 | 26.52226 | -81.01005 | 14306 ft | 367 kts | 30° |
| 2026-04-24 23:59 | 26.54371 | -80.99452 | 14079 ft | 367 kts | 30° |
| 2026-04-24 23:59 | 26.56510 | -80.97903 | 13851 ft | 366 kts | 31° |
| 2026-04-25 00:00 | 26.58636 | -80.96358 | 13607 ft | 360 kts | 30° |
| 2026-04-25 00:00 | 26.60692 | -80.94860 | 13345 ft | 346 kts | 31° |
| 2026-04-25 00:00 | 26.62668 | -80.93427 | 13109 ft | 330 kts | 30° |
| 2026-04-25 00:00 | 26.64535 | -80.92067 | 12930 ft | 312 kts | 30° |
| 2026-04-25 00:01 | 26.66323 | -80.90773 | 12664 ft | 301 kts | 30° |
| 2026-04-25 00:01 | 26.68049 | -80.89514 | 12395 ft | 292 kts | 30° |
| 2026-04-25 00:01 | 26.69731 | -80.88295 | 12143 ft | 284 kts | 30° |
| 2026-04-25 00:01 | 26.71353 | -80.87111 | 12060 ft | 272 kts | 30° |
| 2026-04-25 00:02 | 26.72906 | -80.85979 | 12020 ft | 261 kts | 30° |
| 2026-04-25 00:02 | 26.74395 | -80.84897 | 12007 ft | 250 kts | 30° |
| 2026-04-25 00:02 | 26.75827 | -80.83852 | 11947 ft | 243 kts | 29° |
| 2026-04-25 00:02 | 26.77229 | -80.82833 | 11852 ft | 238 kts | 30° |
| 2026-04-25 00:03 | 26.78581 | -80.81789 | 11758 ft | 236 kts | 38° |
| 2026-04-25 00:03 | 26.79455 | -80.80214 | 11506 ft | 246 kts | 70° |
| 2026-04-25 00:03 | 26.79675 | -80.78289 | 11144 ft | 252 kts | 86° |
| 2026-04-25 00:03 | 26.79688 | -80.76325 | 10790 ft | 254 kts | 95° |
| 2026-04-25 00:04 | 26.79157 | -80.74442 | 10433 ft | 255 kts | 111° |
| 2026-04-25 00:04 | 26.78513 | -80.72595 | 10092 ft | 255 kts | 111° |
| 2026-04-25 00:04 | 26.77881 | -80.70739 | 9742 ft | 255 kts | 110° |
| 2026-04-25 00:04 | 26.77269 | -80.68877 | 9359 ft | 255 kts | 110° |
| 2026-04-25 00:05 | 26.76657 | -80.67018 | 8980 ft | 253 kts | 109° |
| 2026-04-25 00:05 | 26.76052 | -80.65204 | 8610 ft | 251 kts | 110° |
| 2026-04-25 00:05 | 26.75448 | -80.63381 | 8240 ft | 249 kts | 110° |
| 2026-04-25 00:05 | 26.74844 | -80.61572 | 7818 ft | 249 kts | 110° |
| 2026-04-25 00:06 | 26.74239 | -80.59750 | 7330 ft | 250 kts | 110° |
| 2026-04-25 00:06 | 26.73630 | -80.57921 | 6860 ft | 251 kts | 110° |
| 2026-04-25 00:06 | 26.72988 | -80.56097 | 6390 ft | 251 kts | 111° |
| 2026-04-25 00:06 | 26.72347 | -80.54284 | 5905 ft | 250 kts | 111° |
| 2026-04-25 00:07 | 26.71712 | -80.52474 | 5416 ft | 249 kts | 111° |
| 2026-04-25 00:07 | 26.71087 | -80.50676 | 4928 ft | 247 kts | 111° |
| 2026-04-25 00:07 | 26.70466 | -80.48899 | 4438 ft | 244 kts | 111° |
| 2026-04-25 00:07 | 26.69852 | -80.47148 | 4095 ft | 236 kts | 111° |
| 2026-04-25 00:08 | 26.69277 | -80.45503 | 4037 ft | 218 kts | 111° |
| 2026-04-25 00:08 | 26.68944 | -80.43934 | 4052 ft | 199 kts | 92° |
| 2026-04-25 00:08 | 26.68973 | -80.42437 | 3867 ft | 195 kts | 87° |
| 2026-04-25 00:08 | 26.69042 | -80.40952 | 3748 ft | 188 kts | 87° |
| 2026-04-25 00:09 | 26.69127 | -80.39522 | 3746 ft | 175 kts | 86° |
| 2026-04-25 00:09 | 26.69180 | -80.38156 | 3574 ft | 175 kts | 90° |
| 2026-04-25 00:09 | 26.69193 | -80.36817 | 3489 ft | 165 kts | 91° |
| 2026-04-25 00:09 | 26.69328 | -80.35558 | 3198 ft | 170 kts | 75° |
| 2026-04-25 00:10 | 26.69484 | -80.34279 | 3059 ft | 163 kts | 88° |
| 2026-04-25 00:10 | 26.69445 | -80.33012 | 2745 ft | 168 kts | 100° |
| 2026-04-25 00:10 | 26.69318 | -80.31730 | 2597 ft | 163 kts | 96° |
| 2026-04-25 00:10 | 26.69290 | -80.30465 | 2364 ft | 164 kts | 90° |
| 2026-04-25 00:11 | 26.69341 | -80.29188 | 2105 ft | 163 kts | 90° |
| 2026-04-25 00:11 | 26.69320 | -80.28356 | 2057 ft | 155 kts | 95° |
| 2026-04-25 00:11 | 26.69211 | -80.26763 | 1794 ft | 153 kts | 97° |
| 2026-04-25 00:11 | 26.69089 | -80.25682 | 1880 ft | 132 kts | 99° |
| 2026-04-25 00:12 | 26.68972 | -80.24677 | 1888 ft | 124 kts | 99° |
| 2026-04-25 00:12 | 26.68909 | -80.23711 | 1823 ft | 124 kts | 95° |
| 2026-04-25 00:12 | 26.68852 | -80.22801 | 1869 ft | 116 kts | 97° |
| 2026-04-25 00:12 | 26.68811 | -80.21880 | 1891 ft | 118 kts | 96° |
| 2026-04-25 00:13 | 26.68763 | -80.21014 | 1921 ft | 116 kts | 95° |
| 2026-04-25 00:13 | 26.68732 | -80.20042 | 1786 ft | 131 kts | 92° |
| 2026-04-25 00:13 | 26.68722 | -80.18975 | 1664 ft | 142 kts | 91° |
| 2026-04-25 00:13 | 26.68667 | -80.17876 | 1551 ft | 133 kts | 96° |
| 2026-04-25 00:14 | 26.68602 | -80.16923 | 1299 ft | 117 kts | 95° |
| 2026-04-25 00:14 | 26.68577 | -80.16028 | 994 ft | 111 kts | 93° |
| 2026-04-25 00:14 | 26.68540 | -80.15232 | 811 ft | 100 kts | 95° |
| 2026-04-25 00:14 | 26.68486 | -80.14438 | 531 ft | 102 kts | 94° |
| 2026-04-25 00:15 | 26.68450 | -80.13679 | 375 ft | 95 kts | 95° |
| 2026-04-25 00:15 | 26.68411 | -80.12937 | 183 ft | 98 kts | 94° |
| 2026-04-25 00:15 | 26.68372 | -80.12180 | 121 ft | 97 kts | 95° |
| 2026-04-25 00:15 | 26.68345 | -80.11411 | 104 ft | 102 kts | 92° |
| 2026-04-25 00:16 | 26.68314 | -80.10615 | 60 ft | 99 kts | 92° |
| 2026-04-25 00:16 | 26.68284 | -80.09926 | 22 ft | 76 kts | 92° |
| 2026-04-25 00:16 | 26.68308 | -80.09655 | 23 ft | 9 kts | 3° |
| 2026-04-25 00:16 | 26.68347 | -80.09665 | 24 ft | 0 kts | 349° |
| 2026-04-25 00:17 | 26.68375 | -80.09687 | 23 ft | 12 kts | 299° |
| 2026-04-25 00:17 | 26.68388 | -80.09834 | 23 ft | 27 kts | 272° |
| 2026-04-25 00:17 | 26.68398 | -80.10081 | 24 ft | 33 kts | 272° |
| 2026-04-25 00:18 | 26.68408 | -80.10337 | 21 ft | 33 kts | 273° |
| 2026-04-25 00:18 | 26.68495 | -80.10447 | 21 ft | 18 kts | 358° |
| 2026-04-25 00:18 | 26.68554 | -80.10551 | 17 ft | 18 kts | 276° |
| 2026-04-25 00:18 | 26.68566 | -80.10692 | 16 ft | 15 kts | 306° |
| 2026-04-25 00:19 | 26.68634 | -80.10728 | 18 ft | 8 kts | 299° |
| 2026-04-25 00:19 | 26.68646 | -80.10795 | 18 ft | 9 kts | 293° |
| 2026-04-25 00:19 | 26.68666 | -80.10811 | 18 ft | 0 kts | 339° |